createdAt,value
2022-07-30T00:06:18.303Z,93.82
2022-07-30T00:13:19.985Z,97.53
2022-07-30T00:20:21.732Z,99.88
2022-07-30T00:27:24.319Z,102.88
2022-07-30T00:34:26.252Z,106.72
2022-07-30T00:41:27.910Z,105.72
2022-07-30T00:48:29.506Z,109.78
2022-07-30T00:55:31.211Z,102.68
2022-07-30T01:02:32.980Z,106.40
2022-07-30T01:09:34.678Z,108.28
2022-07-30T01:16:38.481Z,106.60
2022-07-30T01:23:43.445Z,113.57
2022-07-30T01:30:45.201Z,114.57
2022-07-30T01:37:46.991Z,110.30
2022-07-30T01:44:48.768Z,111.72
2022-07-30T01:51:50.860Z,115.60
2022-07-30T01:58:52.819Z,114.15
2022-07-30T02:06:04.820Z,113.35
2022-07-30T02:13:06.873Z,115.78
2022-07-30T02:20:10.690Z,115.13
2022-07-30T02:27:18.528Z,114.18
2022-07-30T02:34:21.549Z,115.18
2022-07-30T02:41:24.285Z,115.55
2022-07-30T02:48:34.251Z,107.18
2022-07-30T02:55:38.482Z,112.60
2022-07-30T03:02:42.865Z,114.85
2022-07-30T03:09:50.734Z,115.55
2022-07-30T03:16:56.106Z,110.72
2022-07-30T03:23:57.774Z,114.40
2022-07-30T03:30:59.504Z,110.78
2022-07-30T03:38:01.823Z,118.18
2022-07-30T03:45:05.410Z,117.18
2022-07-30T03:52:08.376Z,116.65
2022-07-30T03:59:10.411Z,115.80
2022-07-30T04:06:14.745Z,116.03
2022-07-30T04:13:16.411Z,116.78
2022-07-30T04:20:23.438Z,118.38
2022-07-30T04:27:28.078Z,114.78
2022-07-30T04:34:29.842Z,110.93
2022-07-30T04:41:33.495Z,115.22
2022-07-30T04:49:09.440Z,110.05
2022-07-30T04:56:11.271Z,114.20
2022-07-30T05:03:13.552Z,116.55
2022-07-30T05:10:18.556Z,107.20
2022-07-30T05:17:20.686Z,106.63
2022-07-30T05:24:22.503Z,105.95
2022-07-30T05:31:31.061Z,107.65
2022-07-30T05:38:36.925Z,115.53
2022-07-30T05:45:53.749Z,118.15
2022-07-30T05:52:56.593Z,121.25
2022-07-30T06:00:21.039Z,114.88
2022-07-30T06:07:29.117Z,115.00
2022-07-30T06:14:32.615Z,112.45
2022-07-30T06:22:02.098Z,114.18
2022-07-30T06:28:58.586Z,113.85
2022-07-30T06:36:06.323Z,108.82
2022-07-30T06:43:19.438Z,108.35
2022-07-30T06:50:41.282Z,109.43
2022-07-30T06:57:43.410Z,106.78
2022-07-30T07:05:05.606Z,110.28
2022-07-30T07:12:07.764Z,105.85
2022-07-30T07:19:09.928Z,103.15
2022-07-30T07:26:16.112Z,102.38
2022-07-30T07:33:18.088Z,100.80
2022-07-30T07:40:21.728Z,100.82
2022-07-30T07:47:26.388Z,99.63
2022-07-30T07:54:42.500Z,97.18
2022-07-30T08:01:46.486Z,100.10
2022-07-30T08:08:51.977Z,98.78
2022-07-30T08:16:25.429Z,107.28
2022-07-30T08:23:55.551Z,101.15
2022-07-30T08:31:00.509Z,93.32
2022-07-30T08:38:04.187Z,89.63
2022-07-30T08:45:06.772Z,83.88
2022-07-30T08:52:10.067Z,82.50
2022-07-30T08:59:17.892Z,80.50
2022-07-30T09:06:19.586Z,80.00
2022-07-30T09:13:28.283Z,86.63
2022-07-30T09:20:35.626Z,78.38
2022-07-30T09:27:47.270Z,77.55
2022-07-30T09:35:14.291Z,84.40
2022-07-30T09:42:34.602Z,69.95
2022-07-30T09:49:42.982Z,68.17
2022-07-30T09:57:23.070Z,90.70
2022-07-30T10:04:32.247Z,80.57
2022-07-30T10:11:44.905Z,70.93
2022-07-30T10:18:47.153Z,68.82
2022-07-30T10:26:08.351Z,65.35
2022-07-30T10:33:37.639Z,64.32
2022-07-30T10:40:50.678Z,72.45
2022-07-30T10:47:52.318Z,65.53
2022-07-30T10:54:53.977Z,61.67
2022-07-30T11:01:58.326Z,62.25
2022-07-30T11:08:59.974Z,62.47
2022-07-30T11:16:04.596Z,65.03
2022-07-30T11:23:18.758Z,63.65
2022-07-30T11:30:20.257Z,65.78
2022-07-30T11:37:32.111Z,65.55
2022-07-30T11:44:34.188Z,68.93
2022-07-30T11:51:42.402Z,71.70
2022-07-30T11:58:44.755Z,79.45
2022-07-30T12:05:53.258Z,87.35
2022-07-30T12:13:13.200Z,96.00
2022-07-30T12:20:19.256Z,138.82
2022-07-30T12:27:21.674Z,132.30
2022-07-30T12:34:24.317Z,132.93
2022-07-30T12:41:48.203Z,126.63
2022-07-30T12:48:49.748Z,123.65
2022-07-30T12:55:51.420Z,102.32
2022-07-30T13:02:53.204Z,92.25
2022-07-30T13:10:11.454Z,86.15
2022-07-30T13:17:13.030Z,76.68
2022-07-30T13:24:18.222Z,59.72
2022-07-30T13:31:21.254Z,56.85
2022-07-30T13:38:23.557Z,58.38
2022-07-30T13:45:25.171Z,53.60
2022-07-30T13:52:26.829Z,59.60
2022-07-30T13:59:28.454Z,62.47
2022-07-30T14:06:30.096Z,66.65
2022-07-30T14:13:31.704Z,65.63
2022-07-30T14:20:33.311Z,61.00
2022-07-30T14:27:35.110Z,60.53
2022-07-30T14:34:36.731Z,61.83
2022-07-30T14:41:38.657Z,61.10
2022-07-30T14:48:40.316Z,58.63
2022-07-30T14:55:41.951Z,55.83
2022-07-30T15:02:43.534Z,57.95
2022-07-30T15:09:45.202Z,62.08
2022-07-30T15:16:46.817Z,59.45
2022-07-30T15:23:48.459Z,60.95
2022-07-30T15:30:50.068Z,54.22
2022-07-30T15:37:51.696Z,66.30
2022-07-30T15:45:15.568Z,61.20
2022-07-30T15:52:15.480Z,55.63
2022-07-30T15:59:17.170Z,49.22
2022-07-30T16:06:18.797Z,56.53
2022-07-30T16:13:20.401Z,46.53
2022-07-30T16:20:22.154Z,56.95
2022-07-30T16:27:25.539Z,36.88
2022-07-30T16:34:27.157Z,58.60
2022-07-30T16:41:28.761Z,50.58
2022-07-30T16:48:32.611Z,63.10
2022-07-30T16:55:34.246Z,61.90
2022-07-30T17:02:35.843Z,62.90
2022-07-30T17:09:37.632Z,69.90
2022-07-30T17:16:39.247Z,64.45
2022-07-30T17:23:40.991Z,65.30
2022-07-30T17:30:42.632Z,92.15
2022-07-30T17:37:44.263Z,100.07
2022-07-30T17:44:45.919Z,88.10
2022-07-30T17:51:47.539Z,104.00
2022-07-30T17:58:51.267Z,97.22
2022-07-30T18:05:53.133Z,95.65
2022-07-30T18:12:54.758Z,98.22
2022-07-30T18:19:56.394Z,92.88
2022-07-30T18:26:59.162Z,93.65
2022-07-30T18:34:01.488Z,93.78
2022-07-30T18:41:03.564Z,94.13
2022-07-30T18:48:05.621Z,96.60
2022-07-30T18:55:08.328Z,99.30
2022-07-30T19:02:09.938Z,110.40
2022-07-30T19:09:16.663Z,105.13
2022-07-30T19:16:20.613Z,115.68
2022-07-30T19:23:22.235Z,116.53
2022-07-30T19:30:23.889Z,119.63
2022-07-30T19:37:25.461Z,117.47
2022-07-30T19:44:27.121Z,121.25
2022-07-30T19:52:11.027Z,128.40
2022-07-30T19:58:52.018Z,120.75
2022-07-30T20:05:57.380Z,120.07
2022-07-30T20:13:01.028Z,124.32
2022-07-30T20:20:09.007Z,138.38
2022-07-30T20:27:35.933Z,150.57
2022-07-30T20:34:32.560Z,161.25
2022-07-30T20:41:34.715Z,159.82
2022-07-30T20:48:36.378Z,161.82
2022-07-30T20:55:39.354Z,145.27
2022-07-30T21:02:43.746Z,147.45
2022-07-30T21:09:49.931Z,149.60
2022-07-30T21:16:56.181Z,142.75
2022-07-30T21:23:58.383Z,137.75
2022-07-30T21:31:01.553Z,132.88
2022-07-30T21:38:03.617Z,134.10
2022-07-30T21:45:05.614Z,141.68
2022-07-30T21:52:08.770Z,135.80
2022-07-30T21:59:10.654Z,134.50
2022-07-30T22:06:13.103Z,132.77
2022-07-30T22:13:18.354Z,137.02
2022-07-30T22:27:28.268Z,140.45
2022-07-30T22:34:42.110Z,140.32
2022-07-30T22:41:46.512Z,140.13
2022-07-30T22:48:48.137Z,136.88
2022-07-30T22:55:50.167Z,130.70
2022-07-30T23:02:51.800Z,124.65
2022-07-30T23:09:53.403Z,125.45
2022-07-30T23:16:57.004Z,122.25
2022-07-30T23:23:58.687Z,120.30
2022-07-30T23:31:00.523Z,118.50
2022-07-30T23:38:02.214Z,124.70
2022-07-30T23:45:04.750Z,121.25
2022-07-30T23:52:06.383Z,118.65
2022-07-30T23:59:08.480Z,121.20
